CheckWX is a tool to help pilots better visualize weather data.  It is not intended as a substitute for an official pre-flight weather briefing.

21:07:07 UTC

KDAB METAR
Daytona Beach International Airport
Daytona Beach, Florida, USA
Current

14 mins ago

KDAB 232053Z 11007KT 080V140 10SM FEW030 SCT041TCU SCT090 28/22 A3006 RMK AO2 SLP180 TCU SW-W DSNT S T02780222 56018
Observed
Feb-23 @ 20:53 UTC
Wind
  • 110° at 7 KTS
Visibility
10 SM
Flight Rules
VFR
Cloud Levels
  • Few at 3,000' AGL
  • Scattered at 4,100' AGL
  • Scattered at 9,000' AGL
Temperature
28°C / 82°F
Dewpoint
22°C / 72°F
Humidity
70%
Altimeter
30.06" Hg
Pressure
1018 hPa
Previous

1 hour ago

KDAB 231953Z 11007KT 080V140 10SM FEW030 BKN041 BKN075 29/22 A3007 RMK AO2 SLP182 T02890222
Observed
Feb-23 @ 19:53 UTC
Wind
  • 110° at 7 KTS
Visibility
10 SM
Flight Rules
VFR
Cloud Levels
  • Few at 3,000' AGL
  • Broken at 4,100' AGL
  • Broken at 7,500' AGL
Temperature
29°C / 84°F
Dewpoint
22°C / 72°F
Humidity
66%
Altimeter
30.07" Hg
Pressure
1018.2 hPa
Previous

2 hours ago

KDAB 231853Z 17005KT 10SM BKN040TCU BKN065 BKN085 29/21 A3009 RMK AO2 SLP188 TCU NE E-SE T02940211
Observed
Feb-23 @ 18:53 UTC
Wind
  • 170° at 5 KTS
Visibility
10 SM
Flight Rules
VFR
Cloud Levels
  • Broken at 4,000' AGL
  • Broken at 6,500' AGL
  • Broken at 8,500' AGL
Temperature
29°C / 84°F
Dewpoint
21°C / 70°F
Humidity
62%
Altimeter
30.09" Hg
Pressure
1018.8 hPa